Impacts METAR Board
IDs:

KBFD - Bradford Rgnl, PA, US

Updated at: 2100 UTC 21 May 2022
Potential Impact None Slight Moderate High
Time 21/09Z 21/10Z 21/11Z 21/12Z 21/13Z 21/14Z 21/15Z 21/16Z 21/17Z 21/18Z 21/19Z 21/20Z 21/21Z
Temp73 71 71 73 75 78 81 82 84 86 85 87 86
Dewpt61 61 61 62 62 62 63 63 62 61 60 60 58
Altim29.97 30.00 30.02 30.02 30.03 30.04 30.04 30.04 30.06 30.06 30.04 30.03 30.04
VIS10 10 10 10 10 10 10 10 10 10 10 10 10
CIG-- -- -- -- -- -- -- -- -- 49 70 -- --
CoverCLRCLRCLRCLRCLRCLRSCTSCTSCTBKNBKNFEWSCT
FltCatVFRVFRVFRVFRVFRVFRVFRVFRVFRVFRVFRVFRVFR
WX--------------------------
WDir250240000250220230210250280190200
WSpd6 6 5 3 6 9 9 7 9 7 7 9 6
WGst-- -- -- -- -- 15 -- 17 18 -- -- 17 19
Raw hourly METARs
KBFD 210853Z AUTO 25006KT 10SM CLR 23/16 A2997 RMK AO2 SLP131 T02280161 53010
KBFD 210953Z AUTO 24006KT 10SM CLR 22/16 A3000 RMK AO2 SLP142 T02170161
KBFD 211053Z AUTO VRB05KT 10SM CLR 22/16 A3002 RMK AO2 SLP148 T02170161
KBFD 211153Z AUTO VRB03KT 10SM CLR 23/17 A3002 RMK AO2 SLP148 70004 T02280167 10228 20217 51018
KBFD 211253Z AUTO VRB06KT 10SM CLR 24/17 A3003 RMK AO2 SLP149 T02390167
KBFD 211353Z AUTO 25009G15KT 10SM CLR 26/17 A3004 RMK AO2 SLP152 T02560167
KBFD 211453Z AUTO 22009KT 10SM SCT031 27/17 A3004 RMK AO2 SLP150 T02720172 50004
KBFD 211553Z AUTO 23007G17KT 200V270 10SM FEW036 SCT043 28/17 A3004 RMK AO2 SLP150 T02780172
KBFD 211653Z AUTO 21009G18KT 10SM SCT045 SCT060 29/17 A3006 RMK AO2 SLP156 T02890167
KBFD 211753Z AUTO 25007KT 220V290 10SM BKN049 BKN060 30/16 A3006 RMK AO2 SLP156 T03000161 10300 20228 51007
KBFD 211853Z AUTO 28007KT 250V320 10SM SCT055 BKN070 29/16 A3004 RMK AO2 SLP150 T02940156
KBFD 211953Z AUTO 19009G17KT 10SM FEW065 31/16 A3003 RMK AO2 SLP147 T03060156
KBFD 212053Z AUTO 20006G19KT 10SM SCT070 30/14 A3004 RMK AO2 SLP149 T03000144 55006



Page loaded:  21:44 UTC  |   02:44 PM Pacific  |   03:44 PM Mountain  |   04:44 PM Central  |   05:44 PM Eastern

 

ADVISORIES

FORECASTS

FORECASTS

OBSERVATIONS

USER TOOLS

ABOUT US